Time;durP1;ratioP1;P1;durP2;ratioP2;P2;SDS_P1;SDS_P2;PMS_P1;PMS_P2;Temp;Humidity;BMP_temperature;BMP_pressure;BME280_temperature;BME280_humidity;BME280_pressure;Samples;Min_cycle;Max_cycle;Signal;HPM_P1;HPM_P2
2021/07/01 00:01:57;;;;;;;;;;;14.30;99.90;;;;;;5102136;28;20006;-92
2021/07/01 00:04:24;;;;;;;;;;;14.30;99.90;;;;;;5112825;28;19916;-92
2021/07/01 00:06:49;;;;;;;;;;;14.30;99.90;;;;;;5094717;28;19955;-91
2021/07/01 00:09:17;;;;;;;;;;;14.30;99.90;;;;;;5128481;27;20389;-92
2021/07/01 00:11:44;;;;;;;;;;;14.30;99.90;;;;;;5111351;28;19916;-91
2021/07/01 00:14:10;;;;;;;;;;;14.30;99.90;;;;;;5111603;28;20279;-92
2021/07/01 00:16:37;;;;;;;;;;;14.30;99.90;;;;;;5112251;28;19968;-92
2021/07/01 00:19:03;;;;;;;;;;;14.30;99.90;;;;;;5111248;28;19955;-91
2021/07/01 00:21:29;;;;;;;;;;;14.30;99.90;;;;;;5090874;28;20006;-92
2021/07/01 00:23:55;;;;;;;;;;;14.30;99.90;;;;;;5091573;28;19928;-91
2021/07/01 00:26:21;;;;;;;;;;;14.30;99.90;;;;;;5110079;28;19919;-92
2021/07/01 00:28:46;;;;;;;;;;;14.30;99.90;;;;;;5111558;28;19941;-92
2021/07/01 00:31:12;;;;;;;;;;;14.30;99.90;;;;;;5111277;28;19963;-92
2021/07/01 00:33:37;;;;;;;;;;;14.30;99.90;;;;;;5086207;28;19962;-92
2021/07/01 00:36:03;;;;;;;;;;;14.30;99.90;;;;;;5091750;28;19920;-91
2021/07/01 00:38:29;;;;;;;;;;;14.30;99.90;;;;;;5094400;28;19940;-92
2021/07/01 00:40:56;;;;;;;;;;;14.30;99.90;;;;;;5111550;28;19919;-92
2021/07/01 00:43:22;;;;;;;;;;;14.30;99.90;;;;;;5112018;28;19916;-92
2021/07/01 00:45:49;;;;;;;;;;;14.30;99.90;;;;;;5111326;28;19923;-92
2021/07/01 00:48:14;;;;;;;;;;;14.30;99.90;;;;;;5111118;28;20393;-91
2021/07/01 00:50:40;;;;;;;;;;;14.30;99.90;;;;;;5111263;28;19912;-92
2021/07/01 00:53:06;;;;;;;;;;;14.30;99.90;;;;;;5086865;28;19945;-91
2021/07/01 00:55:32;;;;;;;;;;;14.30;99.90;;;;;;5106598;28;19923;-92
2021/07/01 00:57:58;;;;;;;;;;;14.30;99.90;;;;;;5103849;28;19915;-92
2021/07/01 01:03:09;;;;;;;;;;;14.30;99.90;;;;;;5109704;28;19920;-91
2021/07/01 01:05:35;;;;;;;;;;;14.30;99.90;;;;;;5115436;28;19915;-91
2021/07/01 01:08:00;;;;;;;;;;;14.20;99.90;;;;;;5114249;28;19977;-92
2021/07/01 01:10:26;;;;;;;;;;;14.20;99.90;;;;;;5090757;28;19919;-92
2021/07/01 01:12:52;;;;;;;;;;;14.20;99.90;;;;;;5095327;28;19924;-92
2021/07/01 01:15:18;;;;;;;;;;;14.20;99.90;;;;;;5080480;28;19920;-92
2021/07/01 01:17:44;;;;;;;;;;;14.20;99.90;;;;;;5077718;28;19919;-92
2021/07/01 01:20:10;;;;;;;;;;;14.20;99.90;;;;;;5114459;28;20652;-92
2021/07/01 01:22:36;;;;;;;;;;;14.20;99.90;;;;;;5092934;28;20394;-89
2021/07/01 01:25:02;;;;;;;;;;;14.20;99.90;;;;;;5113186;28;19924;-91
2021/07/01 01:27:28;;;;;;;;;;;14.20;99.90;;;;;;5130417;27;20294;-92
2021/07/01 01:29:54;;;;;;;;;;;14.20;99.90;;;;;;5096304;28;20006;-89
2021/07/01 01:32:20;;;;;;;;;;;14.10;99.90;;;;;;5119917;27;20002;-92
2021/07/01 01:34:45;;;;;;;;;;;14.20;99.90;;;;;;5113302;28;19980;-91
2021/07/01 01:37:11;;;;;;;;;;;14.20;99.90;;;;;;5112451;28;20458;-92
2021/07/01 01:39:37;;;;;;;;;;;14.10;99.90;;;;;;5096296;28;19926;-92
2021/07/01 01:42:03;;;;;;;;;;;14.10;99.90;;;;;;5099929;28;19930;-92
2021/07/01 01:44:29;;;;;;;;;;;14.10;99.90;;;;;;5093842;28;20371;-91
2021/07/01 01:46:54;;;;;;;;;;;14.10;99.90;;;;;;5093816;28;20010;-91
2021/07/01 01:49:21;;;;;;;;;;;14.10;99.90;;;;;;5114081;28;20366;-92
2021/07/01 01:51:48;;;;;;;;;;;14.10;99.90;;;;;;5130682;27;19915;-92
2021/07/01 01:54:13;;;;;;;;;;;14.20;99.90;;;;;;5093634;28;19923;-91
2021/07/01 01:56:46;;;;;;;;;;;14.10;99.90;;;;;;5111028;28;20023;-93
2021/07/01 01:59:11;;;;;;;;;;;14.20;99.90;;;;;;5122327;27;19972;-92
2021/07/01 02:01:37;;;;;;;;;;;14.10;99.90;;;;;;5097137;28;19965;-90
2021/07/01 02:04:03;;;;;;;;;;;14.20;99.90;;;;;;5114457;28;19964;-93
2021/07/01 02:06:30;;;;;;;;;;;14.20;99.90;;;;;;5098129;28;19926;-91
2021/07/01 02:08:56;;;;;;;;;;;14.10;99.90;;;;;;5112489;28;19920;-92
2021/07/01 02:11:21;;;;;;;;;;;14.10;99.90;;;;;;5091648;28;19938;-91
2021/07/01 02:13:47;;;;;;;;;;;14.20;99.90;;;;;;5112131;28;19923;-91
2021/07/01 02:16:13;;;;;;;;;;;14.20;99.90;;;;;;5080038;28;20381;-93
2021/07/01 02:18:39;;;;;;;;;;;14.20;99.90;;;;;;5130058;27;19920;-92
2021/07/01 02:21:05;;;;;;;;;;;14.20;99.90;;;;;;5096546;28;19926;-91
2021/07/01 02:23:35;;;;;;;;;;;14.20;99.90;;;;;;5113236;28;19942;-90
2021/07/01 02:26:01;;;;;;;;;;;14.20;99.90;;;;;;5097429;28;20426;-93
2021/07/01 02:28:27;;;;;;;;;;;14.20;99.90;;;;;;5112823;28;19965;-92
2021/07/01 02:30:52;;;;;;;;;;;14.20;99.90;;;;;;5113246;28;19916;-92
2021/07/01 02:33:18;;;;;;;;;;;14.20;99.90;;;;;;5096207;28;20355;-91
2021/07/01 02:35:44;;;;;;;;;;;14.20;99.90;;;;;;5113928;28;19920;-92
2021/07/01 02:38:10;;;;;;;;;;;14.30;99.90;;;;;;5096400;28;19971;-93
2021/07/01 02:40:37;;;;;;;;;;;14.20;99.90;;;;;;5094201;28;19920;-93
2021/07/01 02:43:03;;;;;;;;;;;14.30;99.90;;;;;;5106093;28;19915;-93
2021/07/01 02:45:28;;;;;;;;;;;14.30;99.90;;;;;;5103737;28;19920;-92
2021/07/01 02:47:54;;;;;;;;;;;14.30;99.90;;;;;;5092852;28;19938;-91
2021/07/01 02:50:20;;;;;;;;;;;14.30;99.90;;;;;;5071707;28;20056;-93
2021/07/01 02:52:46;;;;;;;;;;;14.30;99.90;;;;;;5077984;28;19920;-92
2021/07/01 02:55:12;;;;;;;;;;;14.30;99.90;;;;;;5086642;28;19920;-93
2021/07/01 02:57:38;;;;;;;;;;;14.30;99.90;;;;;;5120299;27;19997;-93
2021/07/01 03:00:05;;;;;;;;;;;14.30;99.90;;;;;;5109636;28;19916;-94
2021/07/01 03:02:31;;;;;;;;;;;14.30;99.90;;;;;;5112291;28;19926;-93
2021/07/01 03:04:57;;;;;;;;;;;14.30;99.90;;;;;;5112809;28;19915;-92
2021/07/01 03:07:23;;;;;;;;;;;14.30;99.90;;;;;;5075885;28;19919;-92
2021/07/01 03:09:48;;;;;;;;;;;14.30;99.90;;;;;;5098450;28;19994;-92
2021/07/01 03:12:14;;;;;;;;;;;14.30;99.90;;;;;;5101768;28;20390;-92
2021/07/01 03:14:49;;;;;;;;;;;14.30;99.90;;;;;;5110502;28;20387;-92
2021/07/01 03:17:15;;;;;;;;;;;14.30;99.90;;;;;;5109627;28;19994;-92
2021/07/01 03:19:41;;;;;;;;;;;14.30;99.90;;;;;;5105444;28;19928;-92
2021/07/01 03:22:07;;;;;;;;;;;14.30;99.90;;;;;;5106423;28;19926;-92
2021/07/01 03:24:33;;;;;;;;;;;14.30;99.90;;;;;;5094038;28;19923;-92
2021/07/01 03:27:03;;;;;;;;;;;14.30;99.90;;;;;;5109656;28;19941;-93
2021/07/01 03:29:29;;;;;;;;;;;14.40;99.90;;;;;;5097485;28;19981;-92
2021/07/01 03:31:55;;;;;;;;;;;14.40;99.90;;;;;;5092548;28;20312;-93
2021/07/01 03:34:21;;;;;;;;;;;14.40;99.90;;;;;;5109517;28;21964;-92
2021/07/01 03:36:47;;;;;;;;;;;14.40;99.90;;;;;;5125366;27;19920;-91
2021/07/01 03:39:13;;;;;;;;;;;14.40;99.90;;;;;;5093083;28;19920;-92
2021/07/01 03:41:39;;;;;;;;;;;14.40;99.90;;;;;;5115316;27;19916;-92
2021/07/01 03:44:07;;;;;;;;;;;14.40;99.90;;;;;;5118313;27;19919;-92
2021/07/01 03:46:33;;;;;;;;;;;14.40;99.90;;;;;;5104885;28;19962;-92
2021/07/01 03:48:59;;;;;;;;;;;14.40;99.90;;;;;;5118144;27;19960;-92
2021/07/01 03:51:25;;;;;;;;;;;14.50;99.90;;;;;;5096620;28;20026;-91
2021/07/01 03:53:50;;;;;;;;;;;14.50;99.90;;;;;;5107592;28;20006;-92
2021/07/01 03:56:16;;;;;;;;;;;14.50;99.90;;;;;;5117762;27;19931;-92
2021/07/01 03:58:42;;;;;;;;;;;14.50;99.90;;;;;;5111341;28;19919;-91
2021/07/01 04:01:08;;;;;;;;;;;14.50;99.90;;;;;;5098435;28;19923;-92
2021/07/01 04:03:33;;;;;;;;;;;14.50;99.90;;;;;;5097788;28;19939;-92
2021/07/01 04:05:59;;;;;;;;;;;14.50;99.90;;;;;;5099859;28;20379;-92
2021/07/01 04:08:25;;;;;;;;;;;14.50;99.90;;;;;;5094696;28;19916;-90
2021/07/01 04:10:51;;;;;;;;;;;14.50;99.90;;;;;;5093244;28;19930;-92
2021/07/01 04:13:17;;;;;;;;;;;14.50;99.90;;;;;;5111142;28;19927;-91
2021/07/01 04:15:43;;;;;;;;;;;14.60;99.90;;;;;;5108052;28;20394;-92
2021/07/01 04:18:12;;;;;;;;;;;14.60;99.90;;;;;;5110682;28;19922;-92
2021/07/01 04:20:39;;;;;;;;;;;14.60;99.90;;;;;;5093742;28;19923;-92
2021/07/01 04:23:05;;;;;;;;;;;14.60;99.90;;;;;;5112190;28;19964;-92
2021/07/01 04:25:32;;;;;;;;;;;14.60;99.90;;;;;;5111336;28;19930;-92
2021/07/01 04:27:57;;;;;;;;;;;14.60;99.90;;;;;;5093638;28;19915;-92
2021/07/01 04:30:23;;;;;;;;;;;14.60;99.90;;;;;;5106709;28;19938;-92
2021/07/01 04:32:49;;;;;;;;;;;14.60;99.90;;;;;;5110807;28;19959;-92
2021/07/01 04:35:15;;;;;;;;;;;14.60;99.90;;;;;;5111291;28;19927;-92
2021/07/01 04:37:40;;;;;;;;;;;14.70;99.90;;;;;;5110936;28;19973;-92
2021/07/01 04:40:09;;;;;;;;;;;14.60;99.90;;;;;;5112285;28;19919;-92
2021/07/01 04:42:35;;;;;;;;;;;14.70;99.90;;;;;;5110733;28;19923;-92
2021/07/01 04:45:01;;;;;;;;;;;14.70;99.90;;;;;;5111232;28;19923;-93
2021/07/01 04:47:27;;;;;;;;;;;14.70;99.90;;;;;;5090445;28;20042;-92
2021/07/01 04:49:52;;;;;;;;;;;14.70;99.90;;;;;;5105927;28;19915;-90
2021/07/01 04:52:18;;;;;;;;;;;14.70;99.90;;;;;;5110856;28;19915;-92
2021/07/01 04:54:44;;;;;;;;;;;14.80;99.90;;;;;;5098963;28;19923;-92
2021/07/01 04:57:09;;;;;;;;;;;14.70;99.90;;;;;;5094103;28;19976;-92
2021/07/01 04:59:35;;;;;;;;;;;14.80;99.90;;;;;;5087165;28;20329;-92
2021/07/01 05:02:01;;;;;;;;;;;14.80;99.90;;;;;;5113505;28;20371;-92
2021/07/01 05:04:27;;;;;;;;;;;14.80;99.90;;;;;;5110835;28;19922;-91
2021/07/01 05:06:52;;;;;;;;;;;14.80;99.90;;;;;;5110383;28;19923;-91
2021/07/01 05:09:18;;;;;;;;;;;14.80;99.90;;;;;;5111690;28;19919;-91
2021/07/01 05:11:44;;;;;;;;;;;14.80;99.90;;;;;;5126843;28;19926;-90
2021/07/01 05:14:10;;;;;;;;;;;14.80;99.90;;;;;;5094199;28;20286;-91
2021/07/01 05:16:35;;;;;;;;;;;14.80;99.90;;;;;;5093878;28;19922;-91
2021/07/01 05:19:02;;;;;;;;;;;14.80;99.90;;;;;;5111872;28;19942;-91
2021/07/01 05:21:28;;;;;;;;;;;14.80;99.90;;;;;;5110090;28;19919;-90
2021/07/01 05:23:54;;;;;;;;;;;14.80;99.90;;;;;;5107909;28;19915;-92
2021/07/01 05:26:20;;;;;;;;;;;14.90;99.90;;;;;;5090671;28;20426;-91
2021/07/01 05:28:45;;;;;;;;;;;14.80;99.90;;;;;;5110438;28;20506;-91
2021/07/01 05:31:11;;;;;;;;;;;14.80;99.90;;;;;;5110656;28;20328;-91
2021/07/01 05:33:37;;;;;;;;;;;14.90;99.90;;;;;;5111406;28;19927;-89
2021/07/01 05:36:03;;;;;;;;;;;14.80;99.90;;;;;;5071623;28;19927;-92
2021/07/01 05:38:29;;;;;;;;;;;14.80;99.90;;;;;;5109642;28;20363;-91
2021/07/01 05:40:55;;;;;;;;;;;14.80;99.90;;;;;;5092609;28;19927;-92
2021/07/01 05:43:20;;;;;;;;;;;14.80;99.90;;;;;;5114089;28;19927;-91
2021/07/01 05:45:46;;;;;;;;;;;14.90;99.90;;;;;;5097120;28;20386;-91
2021/07/01 05:48:12;;;;;;;;;;;14.90;99.90;;;;;;5091673;28;20086;-91
2021/07/01 05:50:48;;;;;;;;;;;14.90;99.90;;;;;;5112706;28;19927;-91
2021/07/01 05:53:21;;;;;;;;;;;14.90;99.90;;;;;;5103130;28;19970;-92
2021/07/01 05:55:47;;;;;;;;;;;14.90;99.90;;;;;;5113624;28;19957;-92
2021/07/01 05:58:13;;;;;;;;;;;14.90;99.90;;;;;;5112556;28;20545;-92
2021/07/01 06:00:39;;;;;;;;;;;14.90;99.90;;;;;;5093187;28;20006;-91
2021/07/01 06:03:04;;;;;;;;;;;14.90;99.90;;;;;;5080208;28;19915;-92
2021/07/01 06:05:30;;;;;;;;;;;14.90;99.90;;;;;;5093957;28;20564;-91
2021/07/01 06:07:56;;;;;;;;;;;14.90;99.90;;;;;;5115915;27;19920;-92
2021/07/01 06:10:23;;;;;;;;;;;14.90;99.90;;;;;;5096864;28;20282;-92
2021/07/01 06:12:50;;;;;;;;;;;15.00;99.90;;;;;;5113535;28;19924;-91
2021/07/01 06:15:15;;;;;;;;;;;15.00;99.90;;;;;;5113837;28;19922;-92
2021/07/01 06:17:42;;;;;;;;;;;15.00;99.90;;;;;;5131071;27;19915;-89
2021/07/01 06:20:09;;;;;;;;;;;15.00;99.90;;;;;;5131064;27;19988;-92
2021/07/01 06:22:35;;;;;;;;;;;14.90;99.90;;;;;;5113682;28;19930;-91
2021/07/01 06:25:02;;;;;;;;;;;14.90;99.90;;;;;;5094257;28;19919;-91
2021/07/01 06:27:36;;;;;;;;;;;14.90;99.90;;;;;;5114113;28;19950;-92
2021/07/01 06:30:05;;;;;;;;;;;14.90;99.90;;;;;;5113648;28;19927;-92
2021/07/01 06:32:34;;;;;;;;;;;14.90;99.90;;;;;;5130053;27;19920;-91
2021/07/01 06:35:00;;;;;;;;;;;15.00;99.90;;;;;;5096957;28;19923;-92
2021/07/01 06:37:29;;;;;;;;;;;15.00;99.90;;;;;;5096658;28;19992;-91
2021/07/01 06:39:56;;;;;;;;;;;15.00;99.90;;;;;;5113388;28;20358;-92
2021/07/01 06:42:22;;;;;;;;;;;15.10;99.90;;;;;;5095805;28;19920;-92
2021/07/01 06:44:49;;;;;;;;;;;15.10;99.90;;;;;;5075773;28;20374;-92
2021/07/01 06:47:16;;;;;;;;;;;15.10;99.90;;;;;;5110518;28;19966;-85
2021/07/01 06:49:42;;;;;;;;;;;15.20;99.90;;;;;;5082041;28;19920;-85
2021/07/01 06:52:12;;;;;;;;;;;15.20;99.90;;;;;;5108519;28;19968;-85
2021/07/01 06:54:39;;;;;;;;;;;15.20;99.90;;;;;;5110267;28;19923;-84
2021/07/01 06:57:04;;;;;;;;;;;15.30;99.90;;;;;;5127205;27;19924;-85
2021/07/01 06:59:33;;;;;;;;;;;15.30;99.90;;;;;;5109499;28;19915;-85
2021/07/01 07:01:59;;;;;;;;;;;15.40;99.90;;;;;;5125785;27;20545;-85
2021/07/01 07:04:26;;;;;;;;;;;15.40;99.90;;;;;;5070046;28;19966;-84
2021/07/01 07:06:51;;;;;;;;;;;15.50;99.90;;;;;;5107179;28;19949;-84
2021/07/01 07:09:18;;;;;;;;;;;15.50;99.90;;;;;;5071979;28;20336;-85
2021/07/01 07:11:44;;;;;;;;;;;15.60;99.90;;;;;;5107760;28;19920;-84
2021/07/01 07:14:11;;;;;;;;;;;15.60;99.90;;;;;;5091105;28;19919;-84
2021/07/01 07:16:39;;;;;;;;;;;15.70;99.90;;;;;;5108681;28;19926;-85
2021/07/01 07:19:06;;;;;;;;;;;15.70;99.90;;;;;;5125210;27;19926;-86
2021/07/01 07:21:34;;;;;;;;;;;15.70;99.90;;;;;;5107583;28;19916;-84
2021/07/01 07:24:02;;;;;;;;;;;15.70;99.90;;;;;;5108090;28;19920;-85
2021/07/01 07:26:28;;;;;;;;;;;15.80;99.90;;;;;;5092943;28;20289;-85
2021/07/01 07:28:54;;;;;;;;;;;15.80;99.90;;;;;;5075954;28;19915;-85
2021/07/01 07:31:24;;;;;;;;;;;15.90;99.90;;;;;;5125947;27;19923;-85
2021/07/01 07:33:54;;;;;;;;;;;15.90;99.90;;;;;;5108537;28;19916;-85
2021/07/01 07:36:20;;;;;;;;;;;16.00;99.90;;;;;;5108437;28;19926;-85
2021/07/01 07:38:46;;;;;;;;;;;16.10;99.90;;;;;;5107842;28;19967;-85
2021/07/01 07:41:13;;;;;;;;;;;16.10;99.90;;;;;;5090766;28;21325;-84
2021/07/01 07:43:39;;;;;;;;;;;16.20;99.90;;;;;;5125300;27;19919;-85
2021/07/01 07:46:05;;;;;;;;;;;16.30;99.90;;;;;;5109929;28;19925;-85
2021/07/01 07:48:31;;;;;;;;;;;16.30;99.90;;;;;;5108626;28;19926;-85
2021/07/01 07:50:56;;;;;;;;;;;16.40;99.90;;;;;;5091364;28;19984;-85
2021/07/01 07:53:29;;;;;;;;;;;16.40;99.90;;;;;;5088391;28;20004;-85
2021/07/01 07:56:00;;;;;;;;;;;16.50;99.90;;;;;;5116073;27;19926;-85
2021/07/01 07:58:26;;;;;;;;;;;16.50;99.90;;;;;;5110814;28;19920;-86
2021/07/01 08:00:53;;;;;;;;;;;16.60;99.90;;;;;;5108364;28;19965;-85
2021/07/01 08:03:19;;;;;;;;;;;16.60;99.90;;;;;;5091989;28;19922;-85
2021/07/01 08:05:45;;;;;;;;;;;16.60;99.90;;;;;;5109244;28;20005;-85
2021/07/01 08:08:13;;;;;;;;;;;16.70;99.90;;;;;;5109352;28;19961;-85
2021/07/01 08:10:40;;;;;;;;;;;16.70;99.90;;;;;;5106924;28;19916;-85
2021/07/01 08:13:06;;;;;;;;;;;16.70;99.90;;;;;;5114597;27;19924;-86
2021/07/01 08:15:33;;;;;;;;;;;16.70;99.90;;;;;;5126419;27;19924;-85
2021/07/01 08:18:00;;;;;;;;;;;16.70;99.90;;;;;;5109610;28;20663;-86
2021/07/01 08:20:26;;;;;;;;;;;16.70;99.90;;;;;;5108853;28;19946;-85
2021/07/01 08:22:53;;;;;;;;;;;16.70;99.90;;;;;;5108655;28;20371;-85
2021/07/01 08:25:20;;;;;;;;;;;16.70;99.90;;;;;;5115415;27;20554;-85
2021/07/01 08:27:47;;;;;;;;;;;16.80;99.90;;;;;;5108942;28;19923;-85
2021/07/01 08:30:15;;;;;;;;;;;16.80;99.90;;;;;;5109118;28;19951;-86
2021/07/01 08:32:40;;;;;;;;;;;16.90;99.90;;;;;;5091269;28;20022;-85
2021/07/01 08:35:07;;;;;;;;;;;16.80;99.90;;;;;;5108156;28;19946;-86
2021/07/01 08:37:33;;;;;;;;;;;16.90;99.90;;;;;;5089336;28;19916;-86
2021/07/01 08:39:59;;;;;;;;;;;17.00;99.90;;;;;;5100904;28;19925;-86
2021/07/01 08:42:30;;;;;;;;;;;17.00;99.90;;;;;;5091907;28;19919;-84
2021/07/01 08:44:59;;;;;;;;;;;17.00;99.90;;;;;;5092082;28;19951;-85
2021/07/01 08:47:29;;;;;;;;;;;17.10;99.90;;;;;;5109460;28;19919;-85
2021/07/01 08:49:56;;;;;;;;;;;17.20;99.90;;;;;;5126348;28;20006;-87
2021/07/01 08:52:23;;;;;;;;;;;17.30;99.90;;;;;;5091929;28;19955;-85
2021/07/01 08:54:54;;;;;;;;;;;17.40;99.90;;;;;;5125562;28;19936;-86
2021/07/01 08:57:25;;;;;;;;;;;17.40;99.90;;;;;;5109231;28;19920;-85
2021/07/01 08:59:55;;;;;;;;;;;17.50;99.90;;;;;;5109091;28;19920;-86
2021/07/01 09:02:29;;;;;;;;;;;17.50;99.90;;;;;;5111898;28;20387;-86
2021/07/01 09:04:55;;;;;;;;;;;17.50;99.90;;;;;;5108327;28;19923;-86
2021/07/01 09:07:23;;;;;;;;;;;17.60;99.90;;;;;;5089031;28;19927;-86
2021/07/01 09:09:55;;;;;;;;;;;17.60;99.90;;;;;;5109193;28;19919;-86
2021/07/01 09:12:23;;;;;;;;;;;17.60;99.90;;;;;;5091477;28;19924;-86
2021/07/01 09:15:15;;;;;;;;;;;17.70;99.90;;;;;;5110578;28;20294;-86
2021/07/01 09:17:47;;;;;;;;;;;17.70;99.90;;;;;;5111312;28;19916;-85
2021/07/01 09:20:18;;;;;;;;;;;17.80;99.90;;;;;;5113103;28;19965;-86
2021/07/01 09:22:45;;;;;;;;;;;17.80;99.90;;;;;;5129716;27;19926;-86
2021/07/01 09:25:11;;;;;;;;;;;17.90;99.90;;;;;;5095397;28;19922;-85
2021/07/01 09:27:40;;;;;;;;;;;18.00;99.90;;;;;;5113920;28;19962;-86
2021/07/01 09:30:06;;;;;;;;;;;18.00;99.90;;;;;;5119265;27;19920;-86
2021/07/01 09:32:34;;;;;;;;;;;18.10;99.90;;;;;;5095205;28;19920;-86
2021/07/01 09:35:00;;;;;;;;;;;18.10;99.90;;;;;;5095845;28;19928;-86
2021/07/01 09:37:37;;;;;;;;;;;18.20;99.90;;;;;;5130308;27;19920;-86
2021/07/01 09:40:03;;;;;;;;;;;18.30;99.90;;;;;;5112944;28;19962;-85
2021/07/01 09:42:29;;;;;;;;;;;18.40;99.90;;;;;;5110653;28;19970;-86
2021/07/01 09:44:57;;;;;;;;;;;18.50;99.90;;;;;;5105339;28;19916;-86
2021/07/01 09:47:28;;;;;;;;;;;18.50;99.90;;;;;;5113478;28;19920;-86
2021/07/01 09:49:55;;;;;;;;;;;18.50;99.90;;;;;;5112219;28;19970;-86
2021/07/01 09:52:23;;;;;;;;;;;18.50;99.90;;;;;;5095044;28;19920;-85
2021/07/01 09:54:49;;;;;;;;;;;18.50;99.90;;;;;;5112877;28;19951;-86
2021/07/01 09:57:28;;;;;;;;;;;18.50;99.90;;;;;;5112859;28;19946;-86
2021/07/01 09:59:55;;;;;;;;;;;18.60;99.90;;;;;;5112678;28;19919;-86
2021/07/01 10:02:22;;;;;;;;;;;18.70;99.90;;;;;;5111407;28;20024;-86
2021/07/01 10:04:48;;;;;;;;;;;18.70;99.90;;;;;;5112441;28;19915;-86
2021/07/01 10:07:18;;;;;;;;;;;18.70;99.90;;;;;;5112060;28;20448;-86
2021/07/01 10:09:45;;;;;;;;;;;18.80;99.90;;;;;;5111995;28;19916;-85
2021/07/01 10:12:14;;;;;;;;;;;18.80;99.90;;;;;;5112420;28;19926;-86
2021/07/01 10:14:41;;;;;;;;;;;18.90;99.90;;;;;;5092578;28;20371;-86
2021/07/01 10:17:11;;;;;;;;;;;18.90;99.90;;;;;;5095306;28;19919;-86
2021/07/01 10:19:37;;;;;;;;;;;18.90;99.90;;;;;;5126484;27;19926;-85
2021/07/01 10:22:04;;;;;;;;;;;18.90;99.90;;;;;;5094293;28;20438;-85
2021/07/01 10:24:32;;;;;;;;;;;18.90;99.90;;;;;;5112714;28;19999;-85
2021/07/01 10:26:58;;;;;;;;;;;18.90;99.90;;;;;;5087156;28;20360;-86
2021/07/01 10:29:34;;;;;;;;;;;18.90;99.90;;;;;;5123500;27;19919;-86
2021/07/01 10:32:04;;;;;;;;;;;18.90;99.90;;;;;;5124565;27;19924;-86
2021/07/01 10:34:30;;;;;;;;;;;19.00;99.90;;;;;;5091215;28;19924;-86
2021/07/01 10:37:12;;;;;;;;;;;19.00;99.90;;;;;;5094988;28;20647;-86
2021/07/01 10:39:39;;;;;;;;;;;18.90;99.90;;;;;;5095081;28;19916;-86
2021/07/01 10:42:05;;;;;;;;;;;18.90;99.90;;;;;;5122829;27;19916;-86
2021/07/01 10:44:31;;;;;;;;;;;18.90;99.90;;;;;;5089702;28;19931;-86
2021/07/01 10:46:57;;;;;;;;;;;19.00;99.90;;;;;;5112320;28;20321;-86
2021/07/01 10:49:36;;;;;;;;;;;18.90;99.90;;;;;;5111484;28;20263;-86
2021/07/01 10:52:05;;;;;;;;;;;18.90;99.90;;;;;;5111513;28;19968;-85
2021/07/01 10:54:31;;;;;;;;;;;18.90;99.90;;;;;;5129779;27;19947;-91
2021/07/01 10:57:09;;;;;;;;;;;18.90;99.90;;;;;;5096721;28;19919;-91
2021/07/01 10:59:49;;;;;;;;;;;18.90;99.90;;;;;;5113399;28;19916;-91
2021/07/01 11:02:23;;;;;;;;;;;19.00;99.90;;;;;;5101242;28;19920;-90
2021/07/01 11:04:50;;;;;;;;;;;19.10;99.90;;;;;;5110589;28;19942;-88
2021/07/01 11:07:17;;;;;;;;;;;19.10;99.90;;;;;;5110983;28;19916;-91
2021/07/01 11:09:43;;;;;;;;;;;19.20;99.90;;;;;;5076484;28;19965;-91
2021/07/01 11:12:10;;;;;;;;;;;19.30;99.90;;;;;;5112194;28;19931;-91
2021/07/01 11:14:40;;;;;;;;;;;19.30;99.90;;;;;;5095681;28;20428;-93
2021/07/01 11:17:06;;;;;;;;;;;19.30;99.90;;;;;;5107136;28;19930;-88
2021/07/01 11:19:42;;;;;;;;;;;19.30;99.90;;;;;;5111774;28;19959;-90
2021/07/01 11:22:08;;;;;;;;;;;19.30;99.90;;;;;;5109079;28;19919;-91
2021/07/01 11:24:37;;;;;;;;;;;19.30;99.90;;;;;;5124494;27;19916;-91
2021/07/01 11:27:03;;;;;;;;;;;19.30;99.90;;;;;;5113357;27;19916;-90
2021/07/01 11:29:33;;;;;;;;;;;19.20;99.90;;;;;;5111132;28;19926;-91
2021/07/01 11:31:59;;;;;;;;;;;19.20;99.90;;;;;;5110554;28;19959;-92
2021/07/01 11:34:37;;;;;;;;;;;19.20;99.90;;;;;;5111829;28;19923;-90
2021/07/01 11:37:03;;;;;;;;;;;19.20;99.90;;;;;;5111542;28;19926;-89
2021/07/01 11:39:29;;;;;;;;;;;19.30;99.90;;;;;;5095423;28;19916;-91
2021/07/01 11:41:55;;;;;;;;;;;19.30;99.90;;;;;;5092023;28;20379;-91
2021/07/01 11:44:22;;;;;;;;;;;19.30;99.90;;;;;;5092871;28;19915;-92
2021/07/01 11:46:48;;;;;;;;;;;19.30;99.90;;;;;;5101365;28;19916;-91
2021/07/01 11:49:14;;;;;;;;;;;19.30;99.90;;;;;;5108736;28;19995;-91
2021/07/01 11:51:41;;;;;;;;;;;19.40;99.90;;;;;;5093005;28;20030;-91
2021/07/01 11:54:07;;;;;;;;;;;19.30;99.90;;;;;;5071637;28;19924;-91
2021/07/01 11:59:34;;;;;;;;;;;19.10;99.90;;;;;;5068056;28;20765;-93
2021/07/01 12:02:04;;;;;;;;;;;19.10;99.90;;;;;;5074592;28;20006;-91
2021/07/01 12:04:36;;;;;;;;;;;19.10;99.90;;;;;;5110251;28;19950;-91
2021/07/01 12:07:08;;;;;;;;;;;19.10;99.90;;;;;;5110629;28;19924;-91
2021/07/01 12:09:37;;;;;;;;;;;19.10;99.90;;;;;;5111664;28;19916;-91
2021/07/01 12:12:03;;;;;;;;;;;19.00;99.90;;;;;;5118899;27;19923;-92
2021/07/01 12:14:36;;;;;;;;;;;18.90;99.90;;;;;;5111341;28;19920;-91
2021/07/01 12:17:02;;;;;;;;;;;18.90;99.90;;;;;;5088985;28;19915;-91
2021/07/01 12:19:47;;;;;;;;;;;18.90;99.90;;;;;;5111847;28;19924;-92
2021/07/01 12:22:32;;;;;;;;;;;18.90;99.90;;;;;;5110759;28;19951;-91
2021/07/01 12:24:58;;;;;;;;;;;18.90;99.90;;;;;;5079647;28;19918;-90
2021/07/01 12:27:29;;;;;;;;;;;18.90;99.90;;;;;;5111354;28;19998;-91
2021/07/01 12:29:54;;;;;;;;;;;18.80;99.90;;;;;;5087466;28;20035;-91
2021/07/01 12:32:27;;;;;;;;;;;18.80;99.90;;;;;;5110535;28;20038;-91
2021/07/01 12:34:53;;;;;;;;;;;18.80;99.90;;;;;;5094232;28;19916;-92
2021/07/01 12:37:20;;;;;;;;;;;18.90;99.90;;;;;;5094481;28;19920;-92
2021/07/01 12:39:49;;;;;;;;;;;18.80;99.90;;;;;;5091219;28;19999;-89
2021/07/01 12:42:15;;;;;;;;;;;18.70;99.90;;;;;;5110710;28;19915;-91
2021/07/01 12:44:43;;;;;;;;;;;18.70;99.90;;;;;;5094076;28;19972;-91
2021/07/01 12:47:24;;;;;;;;;;;18.70;99.90;;;;;;5074346;28;19916;-90
2021/07/01 12:49:52;;;;;;;;;;;18.70;99.90;;;;;;5108879;28;19981;-91
2021/07/01 12:52:19;;;;;;;;;;;18.70;99.90;;;;;;5115654;28;19912;-91
2021/07/01 12:54:45;;;;;;;;;;;18.70;99.90;;;;;;5116440;28;19919;-91
2021/07/01 12:57:12;;;;;;;;;;;18.60;99.90;;;;;;5098117;28;19973;-91
2021/07/01 12:59:39;;;;;;;;;;;18.60;99.90;;;;;;5098029;28;19977;-90
2021/07/01 13:02:09;;;;;;;;;;;18.60;99.90;;;;;;5113149;28;20293;-90
2021/07/01 13:04:39;;;;;;;;;;;18.50;99.90;;;;;;5113487;28;20351;-91
2021/07/01 13:07:06;;;;;;;;;;;18.40;99.90;;;;;;5114136;28;20286;-91
2021/07/01 13:09:32;;;;;;;;;;;18.30;99.90;;;;;;5115300;28;20014;-92
2021/07/01 13:11:59;;;;;;;;;;;18.30;99.90;;;;;;5097432;28;20537;-91
2021/07/01 13:14:25;;;;;;;;;;;18.30;99.90;;;;;;5114475;28;20374;-90
2021/07/01 13:17:10;;;;;;;;;;;18.30;99.90;;;;;;5132084;27;19915;-91
2021/07/01 13:19:37;;;;;;;;;;;18.30;99.90;;;;;;5097790;28;20747;-90
2021/07/01 13:22:10;;;;;;;;;;;18.30;99.90;;;;;;5108912;28;19919;-92
2021/07/01 13:24:37;;;;;;;;;;;18.20;99.90;;;;;;5108876;28;19923;-91
2021/07/01 13:27:03;;;;;;;;;;;18.10;99.90;;;;;;5097479;28;19924;-91
2021/07/01 13:29:41;;;;;;;;;;;18.10;99.90;;;;;;5114410;28;20420;-91
2021/07/01 13:32:08;;;;;;;;;;;18.10;99.90;;;;;;5100779;28;19926;-91
2021/07/01 13:34:35;;;;;;;;;;;18.20;99.90;;;;;;5111441;28;19916;-91
2021/07/01 13:37:24;;;;;;;;;;;18.20;99.90;;;;;;5084357;28;19924;-91
2021/07/01 13:39:51;;;;;;;;;;;18.20;99.90;;;;;;5102896;28;20011;-90
2021/07/01 13:42:23;;;;;;;;;;;18.20;99.90;;;;;;5113625;28;19919;-89
2021/07/01 13:44:58;;;;;;;;;;;18.20;99.90;;;;;;5123508;27;19915;-88
2021/07/01 13:47:24;;;;;;;;;;;18.30;99.90;;;;;;5112312;28;19922;-91
2021/07/01 13:49:50;;;;;;;;;;;18.30;99.90;;;;;;5122233;27;19912;-91
2021/07/01 13:52:16;;;;;;;;;;;18.30;99.90;;;;;;5113457;27;19920;-90
2021/07/01 13:54:42;;;;;;;;;;;18.30;99.90;;;;;;5096640;28;20348;-91
2021/07/01 13:57:07;;;;;;;;;;;18.30;99.90;;;;;;5080236;28;19974;-91
2021/07/01 13:59:33;;;;;;;;;;;18.30;99.90;;;;;;5130822;27;19915;-91
2021/07/01 14:02:01;;;;;;;;;;;18.30;99.90;;;;;;5096449;28;19919;-90
2021/07/01 14:04:27;;;;;;;;;;;18.30;99.90;;;;;;5097473;28;19945;-91
2021/07/01 14:06:53;;;;;;;;;;;18.30;99.90;;;;;;5097268;28;19916;-91
2021/07/01 14:09:22;;;;;;;;;;;18.30;99.90;;;;;;5095478;28;20065;-91
2021/07/01 14:11:48;;;;;;;;;;;18.30;99.90;;;;;;5122140;27;19923;-91
2021/07/01 14:14:15;;;;;;;;;;;18.30;99.90;;;;;;5115193;27;19920;-90
2021/07/01 14:16:41;;;;;;;;;;;18.20;99.90;;;;;;5109939;28;19919;-91
2021/07/01 14:19:12;;;;;;;;;;;18.20;99.90;;;;;;5089639;28;19923;-90
2021/07/01 14:21:38;;;;;;;;;;;18.20;99.90;;;;;;5113569;28;19920;-90
2021/07/01 14:24:36;;;;;;;;;;;18.20;99.90;;;;;;5114616;28;19922;-91